createdAt,value
2019-02-19T00:00:37.521Z,50.56
2019-02-19T00:06:32.515Z,50.39
2019-02-19T00:12:27.524Z,57.77
2019-02-19T00:18:22.527Z,61
2019-02-19T00:24:17.540Z,65.57
2019-02-19T00:30:12.593Z,75.71
2019-02-19T00:36:07.561Z,69.33
2019-02-19T00:42:02.526Z,59.32
2019-02-19T00:47:57.568Z,65.05
2019-02-19T00:53:52.518Z,63.23
2019-02-19T00:59:47.541Z,66.19
2019-02-19T01:05:42.576Z,63.73
2019-02-19T01:11:37.662Z,58.96
2019-02-19T01:17:32.604Z,63.5
2019-02-19T01:23:31.660Z,61.16
2019-02-19T01:29:26.616Z,65.18
2019-02-19T01:35:45.808Z,66.47
2019-02-19T01:41:12.613Z,62.43
2019-02-19T01:47:07.659Z,66.33
2019-02-19T01:53:02.630Z,61.32
2019-02-19T01:58:57.591Z,67.34
2019-02-19T02:04:52.579Z,63.11
2019-02-19T02:10:47.582Z,60.56
2019-02-19T02:16:42.602Z,66.97
2019-02-19T02:22:37.583Z,68.53
2019-02-19T02:28:32.590Z,66.64
2019-02-19T02:34:27.618Z,64.04
2019-02-19T02:40:22.619Z,67.61
2019-02-19T02:46:17.615Z,68.61
2019-02-19T02:52:12.655Z,63.59
2019-02-19T02:58:07.629Z,61.56
2019-02-19T03:04:02.650Z,64
2019-02-19T03:09:57.646Z,66.37
2019-02-19T03:16:01.875Z,55.97
2019-02-19T03:21:47.628Z,62.98
2019-02-19T03:27:42.658Z,63.16
2019-02-19T03:33:37.633Z,68.72
2019-02-19T03:39:32.617Z,67.06
2019-02-19T03:45:27.639Z,56.43
2019-02-19T03:51:22.662Z,62.73
2019-02-19T03:57:17.692Z,56.48
2019-02-19T04:03:12.633Z,56.2
2019-02-19T04:09:07.655Z,58.42
2019-02-19T04:15:02.671Z,60.77
2019-02-19T04:20:57.656Z,53.74
2019-02-19T04:26:52.642Z,53.47
2019-02-19T04:32:47.650Z,54.65
2019-02-19T04:38:42.660Z,66.06
2019-02-19T04:44:37.684Z,67.4
2019-02-19T04:50:32.677Z,68.23
2019-02-19T04:56:27.661Z,68.46
2019-02-19T05:02:22.678Z,66.73
2019-02-19T05:08:17.691Z,59.02
2019-02-19T05:14:12.689Z,74.99
2019-02-19T05:20:07.729Z,71.14
2019-02-19T05:26:02.708Z,71.27
2019-02-19T05:31:57.686Z,63.7
2019-02-19T05:37:52.692Z,66.35
2019-02-19T05:43:47.710Z,74.52
2019-02-19T05:49:42.694Z,71.38
2019-02-19T05:55:37.696Z,68.67
2019-02-19T06:01:32.719Z,69.95
2019-02-19T06:07:27.716Z,64.9
2019-02-19T06:13:22.704Z,60.11
2019-02-19T06:19:17.720Z,70.26
2019-02-19T06:25:12.701Z,68.2
2019-02-19T06:31:07.730Z,71.99
2019-02-19T06:37:02.738Z,65.88
2019-02-19T06:42:57.730Z,64.8
2019-02-19T06:48:52.752Z,64.03
2019-02-19T06:54:47.757Z,64.97
2019-02-19T07:00:42.733Z,68.56
2019-02-19T07:06:37.745Z,66.01
2019-02-19T07:12:32.733Z,70.98
2019-02-19T07:18:27.740Z,65.94
2019-02-19T07:24:22.746Z,67.43
2019-02-19T07:30:17.734Z,71.47
2019-02-19T07:36:12.773Z,72.23
2019-02-19T07:42:07.754Z,68.38
2019-02-19T07:48:02.772Z,75.02
2019-02-19T07:53:57.761Z,61.42
2019-02-19T07:59:52.761Z,66.88
2019-02-19T08:05:47.805Z,72.4
2019-02-19T08:11:42.764Z,74.82
2019-02-19T08:17:37.777Z,77.43
2019-02-19T08:23:32.764Z,79.39
2019-02-19T08:29:27.810Z,71.7
2019-02-19T08:35:22.830Z,70.34
2019-02-19T08:41:17.787Z,73.7
2019-02-19T08:47:13.003Z,112.25
2019-02-19T08:53:07.780Z,443.04
2019-02-19T08:59:02.805Z,219.53
2019-02-19T09:04:57.841Z,100.79
2019-02-19T09:10:52.797Z,425.91
2019-02-19T09:16:47.851Z,569.64
2019-02-19T09:22:42.912Z,114.31
2019-02-19T09:28:37.781Z,164.58
2019-02-19T09:34:32.830Z,94.83
2019-02-19T09:40:27.877Z,84.73
2019-02-19T09:46:22.842Z,86.29
2019-02-19T09:52:17.873Z,81.71
2019-02-19T09:58:12.887Z,82.4
2019-02-19T10:04:07.833Z,75.45
2019-02-19T10:10:02.827Z,84.29
2019-02-19T10:15:57.817Z,129.23
2019-02-19T10:21:52.884Z,70.21
2019-02-19T10:27:47.870Z,69.87
2019-02-19T10:33:42.848Z,83.06
2019-02-19T10:39:37.856Z,77.64
2019-02-19T10:45:32.930Z,61.76
2019-02-19T10:51:27.939Z,68.47
2019-02-19T10:57:22.892Z,52.15
2019-02-19T11:03:17.894Z,46.29
2019-02-19T11:09:12.874Z,52.72
2019-02-19T11:15:07.917Z,50.16
2019-02-19T11:21:02.871Z,39.93
2019-02-19T11:26:57.963Z,33.6
2019-02-19T11:32:52.886Z,26.65
2019-02-19T11:38:47.952Z,20.27
2019-02-19T11:44:42.884Z,14.44
2019-02-19T11:50:37.884Z,13.26
2019-02-19T11:56:32.901Z,14.36
2019-02-19T12:02:32.820Z,12.29
2019-02-19T12:08:22.941Z,17.51
2019-02-19T12:14:17.902Z,14.12
2019-02-19T12:20:12.903Z,14.1
2019-02-19T12:26:07.925Z,13.24
2019-02-19T12:32:02.912Z,12.71
2019-02-19T12:37:57.930Z,12.93
2019-02-19T12:43:52.916Z,16
2019-02-19T12:49:47.927Z,10.15
2019-02-19T12:55:43.703Z,15.26
2019-02-19T13:01:37.980Z,8.51
2019-02-19T13:07:32.949Z,11.74
2019-02-19T13:13:27.955Z,7.68
2019-02-19T13:19:22.937Z,7.88
2019-02-19T13:25:17.997Z,8.85
2019-02-19T13:31:12.975Z,9.63
2019-02-19T13:37:07.980Z,6.62
2019-02-19T13:43:03.016Z,4.77
2019-02-19T13:48:57.965Z,7.55
2019-02-19T13:54:53.011Z,9.26
2019-02-19T14:00:48.038Z,8.09
2019-02-19T14:06:42.980Z,10.27
2019-02-19T14:12:37.980Z,5.86
2019-02-19T14:18:33.000Z,7.11
2019-02-19T14:24:28.005Z,5.54
2019-02-19T14:30:23.005Z,5.2
2019-02-19T14:36:17.987Z,9.01
2019-02-19T14:42:13.036Z,6.79
2019-02-19T14:48:08.016Z,4.68
2019-02-19T14:54:02.996Z,5.68
2019-02-19T14:59:58.011Z,6.95
2019-02-19T15:05:53.021Z,6.79
2019-02-19T15:11:48.023Z,8.26
2019-02-19T15:17:43.016Z,8.17
2019-02-19T15:23:38.052Z,13.5
2019-02-19T15:29:33.075Z,11.15
2019-02-19T15:35:28.020Z,7.79
2019-02-19T15:41:23.049Z,10.88
2019-02-19T15:47:18.042Z,8.5
2019-02-19T15:53:13.041Z,7.73
2019-02-19T15:59:08.112Z,8.35
2019-02-19T16:05:03.040Z,11.67
2019-02-19T16:10:58.033Z,13.19
2019-02-19T16:16:53.072Z,10.05
2019-02-19T16:22:48.079Z,11.88
2019-02-19T16:28:43.077Z,7.16
2019-02-19T16:34:38.065Z,15.2
2019-02-19T16:40:33.123Z,19.23
2019-02-19T16:46:28.077Z,21.07
2019-02-19T16:52:23.098Z,11.08
2019-02-19T16:58:18.086Z,10.6
2019-02-19T17:04:13.082Z,13.7
2019-02-19T17:10:08.090Z,12.56
2019-02-19T17:16:03.094Z,23.6
2019-02-19T17:21:58.107Z,21.94
2019-02-19T17:27:53.111Z,15.63
2019-02-19T17:33:48.114Z,15.58
2019-02-19T17:39:43.132Z,13.69
2019-02-19T17:45:38.127Z,17.48
2019-02-19T17:51:33.117Z,14.24
2019-02-19T17:57:28.093Z,14.34
2019-02-19T18:03:23.132Z,12.68
2019-02-19T18:09:18.109Z,13.97
2019-02-19T18:15:13.116Z,13.65
2019-02-19T18:21:08.142Z,16.03
2019-02-19T18:27:03.132Z,11.8
2019-02-19T18:32:58.130Z,18.7
2019-02-19T18:38:53.128Z,10.39
2019-02-19T18:44:48.143Z,13.35
2019-02-19T18:50:43.132Z,13.63
2019-02-19T18:56:38.173Z,44.07
2019-02-19T19:02:33.164Z,27.33
2019-02-19T19:08:28.215Z,11.56
2019-02-19T19:14:23.230Z,15.32
2019-02-19T19:20:18.153Z,13.4
2019-02-19T19:26:13.181Z,12.5
2019-02-19T19:32:08.240Z,16.29
2019-02-19T19:38:03.171Z,17.63
2019-02-19T19:43:58.203Z,12.68
2019-02-19T19:49:53.225Z,21.19
2019-02-19T19:55:48.200Z,23.28
2019-02-19T20:01:43.173Z,16.33
2019-02-19T20:07:38.188Z,17.96
2019-02-19T20:13:33.167Z,17.57
2019-02-19T20:19:28.198Z,18.28
2019-02-19T20:25:23.190Z,21.45
2019-02-19T20:31:18.209Z,24.74
2019-02-19T20:37:13.222Z,16.32
2019-02-19T20:43:08.195Z,18.4
2019-02-19T20:49:03.236Z,28.22
2019-02-19T20:54:58.224Z,24.36
2019-02-19T21:00:53.388Z,17.93
2019-02-19T21:06:48.239Z,23.23
2019-02-19T21:12:43.284Z,18.2
2019-02-19T21:18:38.211Z,17.39
2019-02-19T21:24:33.227Z,22.8
2019-02-19T21:30:28.240Z,17.04
2019-02-19T21:36:23.234Z,18.34
2019-02-19T21:42:18.252Z,15.58
2019-02-19T21:48:13.242Z,17.49
2019-02-19T21:54:08.252Z,19.87
2019-02-19T22:00:03.260Z,21.94
2019-02-19T22:05:58.283Z,23.54
2019-02-19T22:11:53.263Z,22.56
2019-02-19T22:17:48.281Z,22.83
2019-02-19T22:23:43.282Z,27.12
2019-02-19T22:29:38.267Z,20.33
2019-02-19T22:35:33.273Z,24.49
2019-02-19T22:41:28.303Z,25.37
2019-02-19T22:47:23.285Z,27.84
2019-02-19T22:53:18.268Z,24.34
2019-02-19T22:59:13.297Z,28.83
2019-02-19T23:05:08.272Z,26.73
2019-02-19T23:11:03.320Z,31.93
2019-02-19T23:16:58.295Z,27.6
2019-02-19T23:22:53.299Z,35.82
2019-02-19T23:28:48.308Z,32.22
2019-02-19T23:34:43.459Z,29.55
2019-02-19T23:40:38.309Z,36.57
2019-02-19T23:46:33.308Z,32.43
2019-02-19T23:52:30.412Z,27.19
